sensor_id;sensor_type;location;lat;lon;timestamp;pressure;altitude;pressure_sealevel;temperature;humidity
8286;BME280;4181;43.416;24.598;2024-03-08T00:02:40;100062.31;;;7.14;100.00
8286;BME280;4181;43.416;24.598;2024-03-08T00:05:17;100059.44;;;6.98;100.00
8286;BME280;4181;43.416;24.598;2024-03-08T00:07:46;100083.84;;;6.98;100.00
8286;BME280;4181;43.416;24.598;2024-03-08T00:10:14;100105.97;;;6.65;100.00
8286;BME280;4181;43.416;24.598;2024-03-08T00:12:59;100100.78;;;6.46;100.00
8286;BME280;4181;43.416;24.598;2024-03-08T00:15:29;100098.41;;;6.31;100.00
8286;BME280;4181;43.416;24.598;2024-03-08T00:17:59;100092.97;;;6.37;100.00
8286;BME280;4181;43.416;24.598;2024-03-08T00:26:41;100090.91;;;6.33;100.00
8286;BME280;4181;43.416;24.598;2024-03-08T00:29:28;100088.19;;;6.33;100.00
8286;BME280;4181;43.416;24.598;2024-03-08T00:32:05;100088.50;;;6.25;100.00
8286;BME280;4181;43.416;24.598;2024-03-08T00:34:37;100096.16;;;6.28;100.00
8286;BME280;4181;43.416;24.598;2024-03-08T00:37:06;100096.25;;;6.21;100.00
8286;BME280;4181;43.416;24.598;2024-03-08T00:39:36;100100.63;;;6.22;100.00
8286;BME280;4181;43.416;24.598;2024-03-08T00:42:04;100109.00;;;6.14;100.00
8286;BME280;4181;43.416;24.598;2024-03-08T00:44:51;100091.63;;;6.04;100.00
8286;BME280;4181;43.416;24.598;2024-03-08T00:47:39;100098.75;;;5.98;100.00
8286;BME280;4181;43.416;24.598;2024-03-08T00:50:10;100084.94;;;6.06;100.00
8286;BME280;4181;43.416;24.598;2024-03-08T00:52:36;100076.59;;;6.26;100.00
8286;BME280;4181;43.416;24.598;2024-03-08T00:55:19;100084.06;;;6.30;100.00
8286;BME280;4181;43.416;24.598;2024-03-08T00:57:57;100092.50;;;6.22;100.00
8286;BME280;4181;43.416;24.598;2024-03-08T01:00:24;100104.81;;;6.18;100.00
8286;BME280;4181;43.416;24.598;2024-03-08T01:02:50;100106.63;;;6.24;100.00
8286;BME280;4181;43.416;24.598;2024-03-08T01:05:34;100109.00;;;6.14;100.00
8286;BME280;4181;43.416;24.598;2024-03-08T01:08:13;100114.09;;;6.29;100.00
8286;BME280;4181;43.416;24.598;2024-03-08T01:10:44;100120.47;;;6.34;100.00
8286;BME280;4181;43.416;24.598;2024-03-08T01:13:10;100114.75;;;6.24;100.00
8286;BME280;4181;43.416;24.598;2024-03-08T01:15:36;100128.53;;;6.23;100.00
8286;BME280;4181;43.416;24.598;2024-03-08T01:18:07;100129.88;;;6.14;100.00
8286;BME280;4181;43.416;24.598;2024-03-08T01:20:38;100130.03;;;6.19;100.00
8286;BME280;4181;43.416;24.598;2024-03-08T01:23:05;100141.53;;;6.14;100.00
8286;BME280;4181;43.416;24.598;2024-03-08T01:25:37;100155.66;;;6.16;100.00
8286;BME280;4181;43.416;24.598;2024-03-08T01:28:07;100148.00;;;6.13;100.00
8286;BME280;4181;43.416;24.598;2024-03-08T01:30:41;100145.28;;;6.13;100.00
8286;BME280;4181;43.416;24.598;2024-03-08T01:33:10;100142.47;;;6.02;100.00
8286;BME280;4181;43.416;24.598;2024-03-08T01:41:11;100148.19;;;6.36;100.00
8286;BME280;4181;43.416;24.598;2024-03-08T01:43:41;100149.63;;;6.39;100.00
8286;BME280;4181;43.416;24.598;2024-03-08T01:46:08;100159.03;;;6.36;100.00
8286;BME280;4181;43.416;24.598;2024-03-08T01:48:36;100167.00;;;6.31;100.00
8286;BME280;4181;43.416;24.598;2024-03-08T01:51:10;100158.22;;;6.54;100.00
8286;BME280;4181;43.416;24.598;2024-03-08T01:53:40;100163.69;;;6.47;100.00
8286;BME280;4181;43.416;24.598;2024-03-08T01:56:11;100166.13;;;6.56;100.00
8286;BME280;4181;43.416;24.598;2024-03-08T01:58:53;100165.22;;;6.62;100.00
8286;BME280;4181;43.416;24.598;2024-03-08T02:01:25;100160.72;;;6.74;100.00
8286;BME280;4181;43.416;24.598;2024-03-08T02:03:53;100165.31;;;6.91;100.00
8286;BME280;4181;43.416;24.598;2024-03-08T02:06:24;100168.78;;;6.98;100.00
8286;BME280;4181;43.416;24.598;2024-03-08T02:09:08;100173.78;;;7.13;100.00
8286;BME280;4181;43.416;24.598;2024-03-08T02:14:25;100208.03;;;6.96;100.00
8286;BME280;4181;43.416;24.598;2024-03-08T02:16:52;100220.06;;;6.82;100.00
8286;BME280;4181;43.416;24.598;2024-03-08T02:19:19;100226.09;;;6.84;100.00
8286;BME280;4181;43.416;24.598;2024-03-08T02:21:56;100226.25;;;6.89;100.00
8286;BME280;4181;43.416;24.598;2024-03-08T02:24:24;100229.69;;;6.78;100.00
8286;BME280;4181;43.416;24.598;2024-03-08T02:27:00;100236.47;;;6.69;100.00
8286;BME280;4181;43.416;24.598;2024-03-08T02:29:29;100235.13;;;6.78;100.00
8286;BME280;4181;43.416;24.598;2024-03-08T02:34:57;100229.97;;;6.94;100.00
8286;BME280;4181;43.416;24.598;2024-03-08T02:37:28;100237.72;;;6.91;100.00
8286;BME280;4181;43.416;24.598;2024-03-08T02:39:58;100245.63;;;6.92;100.00
8286;BME280;4181;43.416;24.598;2024-03-08T02:42:27;100242.53;;;6.89;100.00
8286;BME280;4181;43.416;24.598;2024-03-08T02:47:40;100243.72;;;6.93;100.00
8286;BME280;4181;43.416;24.598;2024-03-08T02:52:52;100264.03;;;6.66;100.00
8286;BME280;4181;43.416;24.598;2024-03-08T02:55:31;100265.63;;;6.73;100.00
8286;BME280;4181;43.416;24.598;2024-03-08T02:58:06;100261.03;;;6.74;100.00
8286;BME280;4181;43.416;24.598;2024-03-08T03:00:38;100263.06;;;6.78;100.00
8286;BME280;4181;43.416;24.598;2024-03-08T03:03:04;100259.69;;;6.83;100.00
8286;BME280;4181;43.416;24.598;2024-03-08T03:05:32;100273.06;;;6.78;100.00
8286;BME280;4181;43.416;24.598;2024-03-08T03:08:01;100266.13;;;6.64;100.00
8286;BME280;4181;43.416;24.598;2024-03-08T03:10:29;100277.44;;;6.61;100.00
8286;BME280;4181;43.416;24.598;2024-03-08T03:12:59;100281.69;;;6.50;100.00
8286;BME280;4181;43.416;24.598;2024-03-08T03:15:53;100274.13;;;6.59;100.00
8286;BME280;4181;43.416;24.598;2024-03-08T03:18:25;100276.50;;;6.49;100.00
8286;BME280;4181;43.416;24.598;2024-03-08T03:20:54;100272.00;;;6.61;100.00
8286;BME280;4181;43.416;24.598;2024-03-08T03:23:22;100278.16;;;6.74;100.00
8286;BME280;4181;43.416;24.598;2024-03-08T03:25:50;100277.47;;;6.79;100.00
8286;BME280;4181;43.416;24.598;2024-03-08T03:28:37;100276.53;;;6.67;100.00
8286;BME280;4181;43.416;24.598;2024-03-08T03:31:10;100283.41;;;6.69;100.00
8286;BME280;4181;43.416;24.598;2024-03-08T03:33:39;100289.00;;;6.74;100.00
8286;BME280;4181;43.416;24.598;2024-03-08T03:36:06;100284.38;;;6.75;100.00
8286;BME280;4181;43.416;24.598;2024-03-08T03:38:42;100296.56;;;6.66;100.00
8286;BME280;4181;43.416;24.598;2024-03-08T03:41:21;100290.38;;;6.59;100.00
8286;BME280;4181;43.416;24.598;2024-03-08T03:43:50;100291.56;;;6.63;100.00
8286;BME280;4181;43.416;24.598;2024-03-08T03:46:22;100293.03;;;6.40;100.00
8286;BME280;4181;43.416;24.598;2024-03-08T03:48:52;100303.03;;;6.40;100.00
8286;BME280;4181;43.416;24.598;2024-03-08T03:51:18;100301.91;;;6.23;100.00
8286;BME280;4181;43.416;24.598;2024-03-08T03:53:50;100300.53;;;6.38;100.00
8286;BME280;4181;43.416;24.598;2024-03-08T03:56:37;100302.13;;;6.21;100.00
8286;BME280;4181;43.416;24.598;2024-03-08T03:59:16;100301.09;;;6.22;100.00
8286;BME280;4181;43.416;24.598;2024-03-08T04:01:49;100285.94;;;6.39;100.00
8286;BME280;4181;43.416;24.598;2024-03-08T04:04:15;100289.03;;;6.43;100.00
8286;BME280;4181;43.416;24.598;2024-03-08T04:06:50;100303.09;;;6.33;100.00
8286;BME280;4181;43.416;24.598;2024-03-08T04:09:19;100304.56;;;6.29;100.00
8286;BME280;4181;43.416;24.598;2024-03-08T04:11:52;100301.59;;;6.37;100.00
8286;BME280;4181;43.416;24.598;2024-03-08T04:14:20;100306.81;;;6.39;100.00
8286;BME280;4181;43.416;24.598;2024-03-08T04:16:53;100305.00;;;6.51;100.00
8286;BME280;4181;43.416;24.598;2024-03-08T04:19:23;100304.78;;;6.53;100.00
8286;BME280;4181;43.416;24.598;2024-03-08T04:21:54;100298.34;;;6.54;100.00
8286;BME280;4181;43.416;24.598;2024-03-08T04:24:33;100313.66;;;6.66;100.00
8286;BME280;4181;43.416;24.598;2024-03-08T04:27:07;100320.69;;;6.74;100.00
8286;BME280;4181;43.416;24.598;2024-03-08T04:29:38;100322.34;;;6.75;100.00
8286;BME280;4181;43.416;24.598;2024-03-08T04:32:07;100329.31;;;6.89;100.00
8286;BME280;4181;43.416;24.598;2024-03-08T04:34:42;100332.97;;;7.01;100.00
8286;BME280;4181;43.416;24.598;2024-03-08T04:37:08;100343.19;;;6.99;100.00
8286;BME280;4181;43.416;24.598;2024-03-08T04:39:38;100341.25;;;7.06;100.00
8286;BME280;4181;43.416;24.598;2024-03-08T04:42:12;100355.56;;;7.13;100.00
8286;BME280;4181;43.416;24.598;2024-03-08T04:44:39;100359.13;;;7.13;100.00
8286;BME280;4181;43.416;24.598;2024-03-08T04:47:15;100360.28;;;7.24;100.00
8286;BME280;4181;43.416;24.598;2024-03-08T04:49:53;100369.91;;;7.20;100.00
8286;BME280;4181;43.416;24.598;2024-03-08T04:52:27;100371.91;;;7.31;100.00
8286;BME280;4181;43.416;24.598;2024-03-08T04:54:55;100374.97;;;7.34;100.00
8286;BME280;4181;43.416;24.598;2024-03-08T04:57:30;100388.50;;;7.41;100.00
8286;BME280;4181;43.416;24.598;2024-03-08T05:00:00;100389.00;;;7.31;100.00
8286;BME280;4181;43.416;24.598;2024-03-08T05:02:27;100407.06;;;6.95;100.00
8286;BME280;4181;43.416;24.598;2024-03-08T05:05:04;100401.41;;;6.96;100.00
8286;BME280;4181;43.416;24.598;2024-03-08T05:07:36;100388.19;;;7.06;100.00
8286;BME280;4181;43.416;24.598;2024-03-08T05:10:07;100399.97;;;7.18;100.00
8286;BME280;4181;43.416;24.598;2024-03-08T05:12:58;100397.66;;;7.22;100.00
8286;BME280;4181;43.416;24.598;2024-03-08T05:15:23;100404.56;;;7.18;100.00
8286;BME280;4181;43.416;24.598;2024-03-08T05:17:51;100396.59;;;7.23;100.00
8286;BME280;4181;43.416;24.598;2024-03-08T05:20:26;100416.34;;;7.30;100.00
8286;BME280;4181;43.416;24.598;2024-03-08T05:22:53;100407.03;;;7.26;100.00
8286;BME280;4181;43.416;24.598;2024-03-08T05:25:26;100414.56;;;7.24;100.00
8286;BME280;4181;43.416;24.598;2024-03-08T05:27:52;100417.44;;;7.29;100.00
8286;BME280;4181;43.416;24.598;2024-03-08T05:30:26;100418.91;;;7.25;100.00
8286;BME280;4181;43.416;24.598;2024-03-08T05:32:52;100426.03;;;7.26;100.00
8286;BME280;4181;43.416;24.598;2024-03-08T05:35:24;100429.09;;;7.29;100.00
8286;BME280;4181;43.416;24.598;2024-03-08T05:37:57;100437.06;;;7.24;100.00
8286;BME280;4181;43.416;24.598;2024-03-08T05:40:27;100445.56;;;7.10;100.00
8286;BME280;4181;43.416;24.598;2024-03-08T05:43:00;100453.84;;;6.90;100.00
8286;BME280;4181;43.416;24.598;2024-03-08T05:45:42;100443.22;;;6.89;100.00
8286;BME280;4181;43.416;24.598;2024-03-08T05:48:19;100446.56;;;6.91;100.00
8286;BME280;4181;43.416;24.598;2024-03-08T05:50:45;100447.81;;;6.88;100.00
8286;BME280;4181;43.416;24.598;2024-03-08T05:53:12;100454.28;;;6.87;100.00
8286;BME280;4181;43.416;24.598;2024-03-08T05:55:40;100451.63;;;6.81;100.00
8286;BME280;4181;43.416;24.598;2024-03-08T05:58:11;100463.78;;;6.72;100.00
8286;BME280;4181;43.416;24.598;2024-03-08T06:00:46;100467.16;;;6.67;100.00
8286;BME280;4181;43.416;24.598;2024-03-08T06:03:22;100461.34;;;6.64;100.00
8286;BME280;4181;43.416;24.598;2024-03-08T06:05:53;100463.06;;;6.83;100.00
8286;BME280;4181;43.416;24.598;2024-03-08T06:08:28;100474.00;;;6.70;100.00
8286;BME280;4181;43.416;24.598;2024-03-08T06:13:49;100457.56;;;6.96;100.00
8286;BME280;4181;43.416;24.598;2024-03-08T06:16:18;100461.94;;;6.97;100.00
8286;BME280;4181;43.416;24.598;2024-03-08T06:18:50;100465.25;;;6.99;100.00
8286;BME280;4181;43.416;24.598;2024-03-08T06:21:22;100467.88;;;7.12;100.00
8286;BME280;4181;43.416;24.598;2024-03-08T06:23:48;100477.31;;;7.03;100.00
8286;BME280;4181;43.416;24.598;2024-03-08T06:26:18;100489.22;;;7.02;100.00
8286;BME280;4181;43.416;24.598;2024-03-08T06:28:46;100494.75;;;6.89;100.00
8286;BME280;4181;43.416;24.598;2024-03-08T06:31:16;100491.81;;;6.90;100.00
8286;BME280;4181;43.416;24.598;2024-03-08T06:33:48;100506.41;;;6.96;100.00
8286;BME280;4181;43.416;24.598;2024-03-08T06:36:20;100505.72;;;7.00;100.00
8286;BME280;4181;43.416;24.598;2024-03-08T06:38:56;100509.88;;;7.03;100.00
8286;BME280;4181;43.416;24.598;2024-03-08T06:41:32;100520.81;;;6.90;100.00
8286;BME280;4181;43.416;24.598;2024-03-08T06:44:02;100528.50;;;6.93;100.00
8286;BME280;4181;43.416;24.598;2024-03-08T06:49:09;100511.13;;;7.07;100.00
8286;BME280;4181;43.416;24.598;2024-03-08T06:51:40;100518.53;;;7.18;100.00
8286;BME280;4181;43.416;24.598;2024-03-08T06:54:12;100516.88;;;7.17;100.00
8286;BME280;4181;43.416;24.598;2024-03-08T06:56:40;100522.53;;;7.40;100.00
8286;BME280;4181;43.416;24.598;2024-03-08T06:59:07;100529.91;;;7.33;100.00
8286;BME280;4181;43.416;24.598;2024-03-08T07:01:44;100534.75;;;7.24;100.00
8286;BME280;4181;43.416;24.598;2024-03-08T07:04:12;100535.09;;;7.10;100.00
8286;BME280;4181;43.416;24.598;2024-03-08T07:06:52;100549.22;;;7.18;100.00
8286;BME280;4181;43.416;24.598;2024-03-08T07:09:25;100536.31;;;7.14;100.00
8286;BME280;4181;43.416;24.598;2024-03-08T07:11:52;100534.22;;;7.16;100.00
8286;BME280;4181;43.416;24.598;2024-03-08T07:14:25;100532.28;;;7.23;100.00
8286;BME280;4181;43.416;24.598;2024-03-08T07:16:52;100531.63;;;7.27;100.00
8286;BME280;4181;43.416;24.598;2024-03-08T07:19:20;100534.94;;;7.29;100.00
8286;BME280;4181;43.416;24.598;2024-03-08T07:21:51;100533.84;;;7.37;100.00
8286;BME280;4181;43.416;24.598;2024-03-08T07:24:25;100535.66;;;7.18;100.00
8286;BME280;4181;43.416;24.598;2024-03-08T07:27:11;100537.00;;;7.34;100.00
8286;BME280;4181;43.416;24.598;2024-03-08T07:29:38;100536.34;;;7.38;100.00
8286;BME280;4181;43.416;24.598;2024-03-08T07:32:07;100547.66;;;7.35;100.00
8286;BME280;4181;43.416;24.598;2024-03-08T07:34:50;100546.53;;;7.43;100.00
8286;BME280;4181;43.416;24.598;2024-03-08T07:37:20;100553.34;;;7.52;100.00
8286;BME280;4181;43.416;24.598;2024-03-08T07:39:48;100559.41;;;7.54;100.00
8286;BME280;4181;43.416;24.598;2024-03-08T07:42:22;100565.28;;;7.51;100.00
8286;BME280;4181;43.416;24.598;2024-03-08T07:44:58;100573.56;;;7.31;100.00
8286;BME280;4181;43.416;24.598;2024-03-08T07:47:26;100567.72;;;7.28;100.00
8286;BME280;4181;43.416;24.598;2024-03-08T07:49:54;100572.94;;;7.29;100.00
8286;BME280;4181;43.416;24.598;2024-03-08T07:52:26;100567.84;;;7.39;100.00
8286;BME280;4181;43.416;24.598;2024-03-08T07:54:56;100571.78;;;7.43;100.00
8286;BME280;4181;43.416;24.598;2024-03-08T07:57:32;100575.97;;;7.46;100.00
8286;BME280;4181;43.416;24.598;2024-03-08T08:00:02;100584.34;;;7.38;100.00
8286;BME280;4181;43.416;24.598;2024-03-08T08:02:39;100592.94;;;7.35;100.00
8286;BME280;4181;43.416;24.598;2024-03-08T08:05:09;100593.56;;;7.37;100.00
8286;BME280;4181;43.416;24.598;2024-03-08T08:07:39;100599.00;;;7.37;100.00
8286;BME280;4181;43.416;24.598;2024-03-08T08:10:11;100595.59;;;7.41;100.00
8286;BME280;4181;43.416;24.598;2024-03-08T08:12:47;100605.03;;;7.39;100.00
8286;BME280;4181;43.416;24.598;2024-03-08T08:15:20;100601.22;;;7.46;100.00
8286;BME280;4181;43.416;24.598;2024-03-08T08:17:48;100614.75;;;7.53;100.00
8286;BME280;4181;43.416;24.598;2024-03-08T08:20:15;100603.94;;;7.46;100.00
8286;BME280;4181;43.416;24.598;2024-03-08T08:22:48;100600.59;;;7.44;100.00
8286;BME280;4181;43.416;24.598;2024-03-08T08:25:14;100612.38;;;7.32;100.00
8286;BME280;4181;43.416;24.598;2024-03-08T08:27:53;100604.47;;;7.30;100.00
8286;BME280;4181;43.416;24.598;2024-03-08T08:30:27;100608.28;;;7.16;100.00
8286;BME280;4181;43.416;24.598;2024-03-08T08:33:00;100608.75;;;7.13;100.00
8286;BME280;4181;43.416;24.598;2024-03-08T08:35:26;100613.94;;;7.15;100.00
8286;BME280;4181;43.416;24.598;2024-03-08T08:37:52;100602.44;;;7.19;100.00
8286;BME280;4181;43.416;24.598;2024-03-08T08:40:21;100597.56;;;7.28;100.00
8286;BME280;4181;43.416;24.598;2024-03-08T08:42:53;100600.91;;;7.30;100.00
8286;BME280;4181;43.416;24.598;2024-03-08T08:45:21;100601.31;;;7.33;100.00
8286;BME280;4181;43.416;24.598;2024-03-08T08:47:49;100600.19;;;7.47;100.00
8286;BME280;4181;43.416;24.598;2024-03-08T08:50:19;100596.28;;;7.61;100.00
8286;BME280;4181;43.416;24.598;2024-03-08T08:52:49;100596.56;;;7.78;100.00
8286;BME280;4181;43.416;24.598;2024-03-08T08:55:19;100597.13;;;7.87;100.00
8286;BME280;4181;43.416;24.598;2024-03-08T08:58:01;100614.56;;;7.79;100.00
8286;BME280;4181;43.416;24.598;2024-03-08T09:00:36;100610.38;;;7.77;100.00
8286;BME280;4181;43.416;24.598;2024-03-08T09:03:02;100620.09;;;7.66;100.00
8286;BME280;4181;43.416;24.598;2024-03-08T09:05:28;100635.16;;;7.62;100.00
8286;BME280;4181;43.416;24.598;2024-03-08T09:07:56;100633.22;;;7.69;100.00
8286;BME280;4181;43.416;24.598;2024-03-08T09:10:34;100638.94;;;7.61;100.00
8286;BME280;4181;43.416;24.598;2024-03-08T09:13:06;100642.91;;;7.58;100.00
8286;BME280;4181;43.416;24.598;2024-03-08T09:15:32;100640.31;;;7.70;100.00
8286;BME280;4181;43.416;24.598;2024-03-08T09:18:00;100631.19;;;7.89;100.00
8286;BME280;4181;43.416;24.598;2024-03-08T09:20:27;100636.94;;;7.99;100.00
8286;BME280;4181;43.416;24.598;2024-03-08T09:22:57;100647.88;;;7.93;100.00
8286;BME280;4181;43.416;24.598;2024-03-08T09:25:33;100656.41;;;7.96;100.00
8286;BME280;4181;43.416;24.598;2024-03-08T09:28:10;100665.03;;;7.87;100.00
8286;BME280;4181;43.416;24.598;2024-03-08T09:30:41;100652.34;;;7.81;100.00
8286;BME280;4181;43.416;24.598;2024-03-08T09:33:07;100665.53;;;7.77;100.00
8286;BME280;4181;43.416;24.598;2024-03-08T09:35:37;100665.09;;;7.80;100.00
8286;BME280;4181;43.416;24.598;2024-03-08T09:38:06;100669.06;;;7.84;100.00
8286;BME280;4181;43.416;24.598;2024-03-08T09:40:41;100670.75;;;7.79;100.00
8286;BME280;4181;43.416;24.598;2024-03-08T09:43:14;100664.72;;;7.77;100.00
8286;BME280;4181;43.416;24.598;2024-03-08T09:45:40;100662.22;;;7.75;100.00
8286;BME280;4181;43.416;24.598;2024-03-08T09:48:20;100666.13;;;7.86;100.00
8286;BME280;4181;43.416;24.598;2024-03-08T09:50:58;100668.66;;;7.81;100.00
8286;BME280;4181;43.416;24.598;2024-03-08T09:53:32;100666.97;;;7.80;100.00
8286;BME280;4181;43.416;24.598;2024-03-08T09:56:09;100668.03;;;7.79;100.00
8286;BME280;4181;43.416;24.598;2024-03-08T09:58:42;100674.66;;;7.89;100.00
8286;BME280;4181;43.416;24.598;2024-03-08T10:01:31;100671.03;;;7.95;100.00
8286;BME280;4181;43.416;24.598;2024-03-08T10:04:02;100671.03;;;7.95;100.00
8286;BME280;4181;43.416;24.598;2024-03-08T10:06:36;100669.28;;;8.07;100.00
8286;BME280;4181;43.416;24.598;2024-03-08T10:09:04;100676.19;;;8.03;100.00
8286;BME280;4181;43.416;24.598;2024-03-08T10:11:33;100674.78;;;8.01;100.00
8286;BME280;4181;43.416;24.598;2024-03-08T10:14:00;100673.00;;;8.13;100.00
8286;BME280;4181;43.416;24.598;2024-03-08T10:16:28;100681.16;;;8.13;100.00
8286;BME280;4181;43.416;24.598;2024-03-08T10:18:58;100676.97;;;8.10;100.00
8286;BME280;4181;43.416;24.598;2024-03-08T10:21:24;100678.28;;;8.08;100.00
8286;BME280;4181;43.416;24.598;2024-03-08T10:23:53;100681.47;;;7.98;100.00
8286;BME280;4181;43.416;24.598;2024-03-08T10:26:22;100686.78;;;7.87;100.00
8286;BME280;4181;43.416;24.598;2024-03-08T10:28:48;100696.38;;;7.89;100.00
8286;BME280;4181;43.416;24.598;2024-03-08T10:31:22;100693.84;;;7.94;100.00
8286;BME280;4181;43.416;24.598;2024-03-08T10:33:48;100692.16;;;7.93;100.00
8286;BME280;4181;43.416;24.598;2024-03-08T10:36:25;100686.72;;;7.93;100.00
8286;BME280;4181;43.416;24.598;2024-03-08T10:38:58;100687.50;;;8.00;100.00
8286;BME280;4181;43.416;24.598;2024-03-08T10:41:38;100688.47;;;7.81;100.00
8286;BME280;4181;43.416;24.598;2024-03-08T10:44:35;100688.47;;;7.81;100.00
8286;BME280;4181;43.416;24.598;2024-03-08T10:47:32;100681.84;;;7.77;100.00
8286;BME280;4181;43.416;24.598;2024-03-08T10:50:18;100677.66;;;7.74;100.00
8286;BME280;4181;43.416;24.598;2024-03-08T10:52:49;100683.53;;;7.71;100.00
8286;BME280;4181;43.416;24.598;2024-03-08T10:55:17;100688.13;;;7.78;100.00
8286;BME280;4181;43.416;24.598;2024-03-08T10:57:48;100674.16;;;7.99;100.00
8286;BME280;4181;43.416;24.598;2024-03-08T11:00:19;100674.09;;;8.05;100.00
8286;BME280;4181;43.416;24.598;2024-03-08T11:06:05;100674.66;;;8.14;100.00
8286;BME280;4181;43.416;24.598;2024-03-08T11:08:32;100670.53;;;8.05;100.00
8286;BME280;4181;43.416;24.598;2024-03-08T11:11:25;100668.53;;;8.18;100.00
8286;BME280;4181;43.416;24.598;2024-03-08T11:13:58;100669.91;;;8.09;100.00
8286;BME280;4181;43.416;24.598;2024-03-08T11:22:02;100669.84;;;7.60;100.00
8286;BME280;4181;43.416;24.598;2024-03-08T11:24:36;100669.91;;;7.78;100.00
8286;BME280;4181;43.416;24.598;2024-03-08T11:27:08;100671.44;;;7.74;100.00
8286;BME280;4181;43.416;24.598;2024-03-08T11:29:36;100680.25;;;7.63;100.00
8286;BME280;4181;43.416;24.598;2024-03-08T11:32:27;100661.78;;;7.47;100.00
8286;BME280;4181;43.416;24.598;2024-03-08T11:35:01;100663.25;;;7.43;100.00
8286;BME280;4181;43.416;24.598;2024-03-08T11:37:36;100663.16;;;7.62;100.00
8286;BME280;4181;43.416;24.598;2024-03-08T11:40:12;100666.59;;;7.45;100.00
8286;BME280;4181;43.416;24.598;2024-03-08T11:42:45;100651.91;;;7.59;100.00
8286;BME280;4181;43.416;24.598;2024-03-08T11:45:16;100657.19;;;7.79;100.00
8286;BME280;4181;43.416;24.598;2024-03-08T11:47:48;100641.84;;;7.91;100.00
8286;BME280;4181;43.416;24.598;2024-03-08T11:50:14;100649.88;;;8.04;100.00
8286;BME280;4181;43.416;24.598;2024-03-08T11:52:47;100642.25;;;8.12;100.00
8286;BME280;4181;43.416;24.598;2024-03-08T11:55:19;100653.13;;;8.12;100.00
8286;BME280;4181;43.416;24.598;2024-03-08T11:58:02;100653.13;;;8.12;100.00
8286;BME280;4181;43.416;24.598;2024-03-08T12:00:37;100646.47;;;8.08;100.00
8286;BME280;4181;43.416;24.598;2024-03-08T12:03:08;100644.69;;;8.20;100.00
8286;BME280;4181;43.416;24.598;2024-03-08T12:05:43;100649.50;;;8.18;100.00
8286;BME280;4181;43.416;24.598;2024-03-08T12:08:10;100643.81;;;8.26;100.00
8286;BME280;4181;43.416;24.598;2024-03-08T12:10:40;100639.59;;;8.30;100.00
8286;BME280;4181;43.416;24.598;2024-03-08T12:13:16;100654.09;;;8.24;100.00
8286;BME280;4181;43.416;24.598;2024-03-08T12:15:45;100645.66;;;8.08;100.00
8286;BME280;4181;43.416;24.598;2024-03-08T12:18:18;100669.63;;;7.86;100.00
8286;BME280;4181;43.416;24.598;2024-03-08T12:20:48;100662.31;;;7.62;100.00
8286;BME280;4181;43.416;24.598;2024-03-08T12:23:16;100656.88;;;7.62;100.00
8286;BME280;4181;43.416;24.598;2024-03-08T12:25:43;100651.53;;;7.80;100.00
8286;BME280;4181;43.416;24.598;2024-03-08T12:28:13;100642.38;;;7.99;100.00
8286;BME280;4181;43.416;24.598;2024-03-08T12:30:52;100643.19;;;8.00;100.00
8286;BME280;4181;43.416;24.598;2024-03-08T12:33:25;100644.81;;;8.07;100.00
8286;BME280;4181;43.416;24.598;2024-03-08T12:35:54;100641.44;;;8.12;100.00
8286;BME280;4181;43.416;24.598;2024-03-08T12:38:22;100643.03;;;8.19;100.00
8286;BME280;4181;43.416;24.598;2024-03-08T12:40:58;100648.97;;;8.10;100.00
8286;BME280;4181;43.416;24.598;2024-03-08T12:43:31;100641.38;;;7.94;100.00
8286;BME280;4181;43.416;24.598;2024-03-08T12:46:06;100647.81;;;7.99;100.00
8286;BME280;4181;43.416;24.598;2024-03-08T12:48:45;100650.78;;;7.91;100.00
8286;BME280;4181;43.416;24.598;2024-03-08T12:51:17;100640.31;;;7.95;100.00
8286;BME280;4181;43.416;24.598;2024-03-08T12:53:49;100647.75;;;8.06;100.00
8286;BME280;4181;43.416;24.598;2024-03-08T12:56:29;100639.88;;;8.22;100.00
8286;BME280;4181;43.416;24.598;2024-03-08T12:59:01;100634.63;;;8.27;100.00
8286;BME280;4181;43.416;24.598;2024-03-08T13:01:32;100640.69;;;8.29;100.00
8286;BME280;4181;43.416;24.598;2024-03-08T13:04:00;100644.22;;;8.30;100.00
8286;BME280;4181;43.416;24.598;2024-03-08T13:06:33;100645.03;;;8.30;100.00
8286;BME280;4181;43.416;24.598;2024-03-08T13:09:01;100647.00;;;8.23;100.00
8286;BME280;4181;43.416;24.598;2024-03-08T13:11:32;100652.91;;;7.89;100.00
8286;BME280;4181;43.416;24.598;2024-03-08T13:14:13;100646.38;;;7.72;100.00
8286;BME280;4181;43.416;24.598;2024-03-08T13:16:41;100651.63;;;7.67;100.00
8286;BME280;4181;43.416;24.598;2024-03-08T13:19:07;100650.16;;;7.71;100.00
8286;BME280;4181;43.416;24.598;2024-03-08T13:21:33;100644.16;;;7.87;100.00
8286;BME280;4181;43.416;24.598;2024-03-08T13:24:01;100638.09;;;7.85;100.00
8286;BME280;4181;43.416;24.598;2024-03-08T13:26:27;100643.09;;;7.88;100.00
8286;BME280;4181;43.416;24.598;2024-03-08T13:29:00;100641.88;;;7.84;100.00
8286;BME280;4181;43.416;24.598;2024-03-08T13:31:28;100638.22;;;7.97;100.00
8286;BME280;4181;43.416;24.598;2024-03-08T13:34:01;100634.78;;;8.08;100.00
8286;BME280;4181;43.416;24.598;2024-03-08T13:36:28;100646.88;;;8.12;100.00
8286;BME280;4181;43.416;24.598;2024-03-08T13:39:05;100630.94;;;8.15;100.00
8286;BME280;4181;43.416;24.598;2024-03-08T13:41:44;100634.13;;;8.12;100.00
8286;BME280;4181;43.416;24.598;2024-03-08T13:44:13;100636.38;;;8.15;100.00
8286;BME280;4181;43.416;24.598;2024-03-08T13:46:40;100626.28;;;8.22;100.00
8286;BME280;4181;43.416;24.598;2024-03-08T13:49:07;100636.28;;;8.28;100.00
8286;BME280;4181;43.416;24.598;2024-03-08T13:51:35;100641.88;;;8.33;100.00
8286;BME280;4181;43.416;24.598;2024-03-08T13:54:04;100636.81;;;8.37;100.00
8286;BME280;4181;43.416;24.598;2024-03-08T13:56:45;100638.78;;;8.30;100.00
8286;BME280;4181;43.416;24.598;2024-03-08T13:59:14;100642.72;;;8.34;100.00
8286;BME280;4181;43.416;24.598;2024-03-08T14:01:42;100641.25;;;8.31;100.00
8286;BME280;4181;43.416;24.598;2024-03-08T14:04:17;100637.81;;;7.93;100.00